Stations météo

réclame
Mon MeteoGroup
Malaga,Puerto, Espagne (8479): Température de l'air & dewpoint: 08.12.2017 18:00:00 - 14.12.2017 18:00:00 (CET)Malaga,Puerto, Espagne (8479): Vitesse du vent & gusts: 08.12.2017 18:00:00 - 14.12.2017 18:00:00 (CET)Malaga,Puerto, Espagne (8479): Direction du vent: 08.12.2017 18:00:00 - 14.12.2017 18:00:00 (CET)Malaga,Puerto, Espagne (8479): reduced air pressure: 08.12.2017 18:00:00 - 14.12.2017 18:00:00 (CET)Malaga,Puerto, Espagne (8479): Quantités de précipitations: 08.12.2017 18:00:00 - 14.12.2017 18:00:00 (CET)
Date & Time tt [°C] td [°C] ff [km/h] ff [knt] fx [km/h] fx [knt] dd ppp [hPa] rr [mm]
14.12.2017 18:00:00 - - - - - - - - -
14.12.2017 17:00:00 17,8 6,7 18 10 37 20 WNW 1021,7 0,0
14.12.2017 16:00:00 17,7 6,3 14 8 41 22 NW 1021,8 0,0
14.12.2017 15:00:00 17,7 6,6 21 12 41 22 NW 1022,0 0,0
14.12.2017 14:00:00 17,5 6,4 12 7 37 20 NW 1023,2 0,0
14.12.2017 13:00:00 18,4 6,3 14 8 41 22 WNW 1024,2 -
14.12.2017 12:00:00 17,5 5,5 18 10 36 19 WNW 1025,2 0,0
14.12.2017 11:00:00 16,1 3,9 14 8 33 18 W 1025,7 0,0
14.12.2017 10:00:00 13,4 1,7 13 7 34 18 W 1025,6 0,0
14.12.2017 09:00:00 11,8 1,2 14 7 28 15 WSW 1026,1 0,0
14.12.2017 08:00:00 10,9 1,5 6 4 14 7 WNW 1026,1 0,0
14.12.2017 07:00:00 10,2 1,3 2 1 13 7 NE 1026,0 -
14.12.2017 06:00:00 10,2 1,3 2 1 16 9 NW 1026,1 0,0
14.12.2017 05:00:00 10,2 1,6 5 3 15 8 WNW 1026,5 0,0
14.12.2017 04:00:00 10,8 1,6 8 4 16 9 NW 1026,9 0,0
14.12.2017 03:00:00 10,6 2,2 4 2 13 7 WNW 1027,3 0,0
14.12.2017 02:00:00 10,1 2,5 3 1 15 8 NW 1027,8 0,0
14.12.2017 01:00:00 9,9 3,2 6 4 14 7 NW 1028,1 -
14.12.2017 00:00:00 10,8 4,7 5 3 13 7 WNW 1028,5 0,0
13.12.2017 23:00:00 10,7 4,4 3 2 13 7 WNW 1028,7 0,0
13.12.2017 22:00:00 11,3 4,8 8 4 13 7 NW 1029,1 0,0
13.12.2017 21:00:00 11,6 5,0 9 5 16 9 N 1029,3 0,0
13.12.2017 20:00:00 11,9 5,3 9 5 15 8 N 1029,0 0,0
13.12.2017 19:00:00 13,4 6,5 3 2 8 4 N 1028,6 -
13.12.2017 18:00:00 14,1 5,7 3 2 8 4 SE 1028,7 0,0
13.12.2017 17:00:00 15,3 5,2 5 3 10 6 SSE 1028,7 0,0
13.12.2017 16:00:00 16,5 5,2 5 3 10 5 SSE 1028,9 0,0
13.12.2017 15:00:00 16,9 4,9 5 3 9 5 SSE 1028,9 0,0
13.12.2017 14:00:00 16,4 4,1 4 2 9 5 SE 1029,7 0,0
13.12.2017 13:00:00 18,0 4,6 3 2 13 7 SSW 1030,1 -
13.12.2017 12:00:00 17,2 3,9 5 3 11 6 SW 1030,7 0,0
13.12.2017 11:00:00 14,0 2,0 5 3 14 8 W 1030,5 0,0
13.12.2017 10:00:00 10,7 0,7 7 4 14 8 W 1030,2 0,0
13.12.2017 09:00:00 8,6 0,3 9 5 14 8 WNW 1029,9 0,0
13.12.2017 08:00:00 8,6 -0,4 7 4 18 10 NW 1029,5 0,0
13.12.2017 07:00:00 8,5 -0,8 9 5 20 11 NNW 1028,7 -
13.12.2017 06:00:00 8,7 -2,2 8 4 11 6 NW 1027,8 0,0
13.12.2017 05:00:00 9,1 -2,8 8 5 15 8 NW 1027,7 0,0
13.12.2017 04:00:00 9,1 -3,1 7 4 17 9 WNW 1027,4 0,0
13.12.2017 03:00:00 9,2 -3,3 9 5 16 9 NW 1026,9 0,0
13.12.2017 02:00:00 9,4 -3,1 8 4 14 8 NNW 1026,2 0,0
13.12.2017 01:00:00 10,0 -2,9 7 4 14 8 NW 1026,1 -
13.12.2017 00:00:00 10,3 -2,3 10 5 16 9 W 1025,7 0,0
12.12.2017 23:00:00 10,4 -2,2 9 5 18 10 WNW 1024,6 0,0
12.12.2017 22:00:00 11,4 -2,7 6 3 16 8 W 1023,8 0,0
12.12.2017 21:00:00 12,4 -3,0 9 5 21 11 NW 1022,8 0,0
12.12.2017 20:00:00 12,2 -3,2 14 7 25 14 W 1022,1 0,0
12.12.2017 19:00:00 13,7 -3,5 11 6 23 12 WNW 1020,8 -
12.12.2017 18:00:00 15,0 -3,8 8 4 23 12 NW 1019,9 0,0
12.12.2017 17:00:00 16,4 -3,1 11 6 24 13 NW 1018,9 0,0
12.12.2017 16:00:00 18,5 -3,6 4 2 22 12 N 1017,8 0,0
12.12.2017 15:00:00 17,4 -1,2 6 3 20 11 NW 1017,2 0,0
12.12.2017 14:00:00 16,7 -0,5 8 4 19 10 N 1016,7 0,0
12.12.2017 13:00:00 17,4 0,6 9 5 23 12 ENE 1016,9 -
12.12.2017 12:00:00 15,3 2,2 7 4 26 14 NNW 1016,9 0,0
12.12.2017 11:00:00 13,1 2,7 14 8 29 15 W 1016,6 0,0
12.12.2017 10:00:00 11,3 3,1 11 6 31 17 W 1015,8 0,0
12.12.2017 09:00:00 9,6 2,9 10 5 24 13 W 1014,9 0,0
12.12.2017 08:00:00 9,3 3,1 9 5 23 12 WSW 1014,2 0,0
12.12.2017 07:00:00 9,9 3,0 13 7 24 13 W 1013,4 -
12.12.2017 06:00:00 10,2 3,0 14 8 23 13 WNW 1012,4 0,0
12.12.2017 05:00:00 10,0 3,1 6 3 21 12 WSW 1011,3 0,0
12.12.2017 04:00:00 10,7 3,3 11 6 23 12 WNW 1010,7 0,0
12.12.2017 03:00:00 11,0 3,1 9 5 26 14 WNW 1010,8 0,0
12.12.2017 02:00:00 11,8 3,3 14 7 27 15 WNW 1010,3 0,0
12.12.2017 01:00:00 12,4 3,6 15 8 31 17 WNW 1009,7 -
12.12.2017 00:00:00 12,6 3,6 10 6 20 11 WNW 1009,1 0,0
11.12.2017 23:00:00 12,1 3,6 7 4 14 8 N 1008,7 0,0
11.12.2017 22:00:00 11,4 3,9 5 3 13 7 NNW 1008,2 0,0
11.12.2017 21:00:00 12,0 3,8 4 2 11 6 NNW 1008,1 0,0
11.12.2017 20:00:00 11,9 2,7 0 0 16 9 W 1007,5 0,0
11.12.2017 19:00:00 13,2 2,2 9 5 20 11 NW 1006,9 -
11.12.2017 18:00:00 13,5 1,5 8 4 29 16 WNW 1006,1 0,0
11.12.2017 17:00:00 14,1 1,7 12 7 29 16 W 1005,5 0,0
11.12.2017 16:00:00 14,0 2,6 17 9 40 21 WNW 1004,3 0,0
11.12.2017 15:00:00 13,1 3,2 14 7 33 18 NW 1004,0 0,0
11.12.2017 14:00:00 12,6 3,8 18 10 44 24 WNW 1004,3 0,0
11.12.2017 13:00:00 12,0 3,8 24 13 46 25 WNW 1004,0 -
11.12.2017 12:00:00 10,8 4,9 13 7 46 25 W 1004,3 0,4
11.12.2017 11:00:00 10,5 5,5 16 9 52 28 WNW 1004,6 2,9
11.12.2017 10:00:00 10,7 4,8 24 13 75 41 NW 1003,7 1,7
11.12.2017 09:00:00 12,1 9,5 22 12 97 53 WNW 1000,9 5,7
11.12.2017 08:00:00 17,2 11,3 26 14 49 27 SW 999,5 0,0
11.12.2017 07:00:00 16,1 13,0 22 12 41 22 S 1001,1 -
11.12.2017 06:00:00 15,7 13,5 23 12 39 21 SSW 1002,1 0,0
11.12.2017 05:00:00 15,7 13,5 6 4 11 6 E 1003,9 0,7
11.12.2017 04:00:00 15,8 13,1 4 2 29 16 ESE 1005,3 0,1
11.12.2017 03:00:00 16,4 12,9 9 5 20 11 ENE 1006,2 0,0
11.12.2017 02:00:00 16,2 11,4 1 1 14 8 E 1008,1 0,0
11.12.2017 01:00:00 16,1 11,7 5 3 11 6 N 1009,6 -
11.12.2017 00:00:00 16,6 12,2 2 1 19 10 WSW 1010,9 0,0
10.12.2017 23:00:00 16,6 12,0 5 3 19 10 W 1012,0 0,0
10.12.2017 22:00:00 16,4 12,2 5 3 14 8 E 1013,0 0,0
10.12.2017 21:00:00 16,4 12,0 4 2 10 5 SSW 1014,1 0,0
10.12.2017 20:00:00 16,8 10,9 1 1 9 5 SSW 1015,0 0,0
10.12.2017 19:00:00 17,2 10,8 4 2 24 13 SW 1015,5 -
10.12.2017 18:00:00 17,7 10,6 10 6 24 13 SSW 1016,4 0,0
10.12.2017 17:00:00 19,6 6,7 10 6 37 20 WNW 1016,5 0,0
10.12.2017 16:00:00 19,8 6,2 17 9 46 25 NW 1017,7 0,0
10.12.2017 15:00:00 19,8 6,9 18 10 45 24 NW 1019,2 0,0
10.12.2017 14:00:00 20,2 6,9 17 9 36 19 NW 1019,9 0,0
10.12.2017 13:00:00 19,5 7,6 13 7 40 22 NW 1021,4 -
10.12.2017 12:00:00 19,2 8,2 16 9 40 22 NW 1022,9 0,0
10.12.2017 11:00:00 18,3 8,6 16 9 38 20 NW 1023,7 0,0
10.12.2017 10:00:00 16,8 9,7 8 4 22 12 W 1024,0 0,0
10.12.2017 09:00:00 16,6 9,3 8 4 36 19 WNW 1023,8 0,0
10.12.2017 08:00:00 16,5 9,4 14 8 29 15 NW 1023,8 0,0
10.12.2017 07:00:00 16,6 9,8 12 7 27 15 WNW 1023,5 -
10.12.2017 06:00:00 16,5 9,9 13 7 34 18 WNW 1024,1 0,0
10.12.2017 05:00:00 16,0 9,9 15 8 27 15 WNW 1024,3 0,0
10.12.2017 04:00:00 16,1 10,0 16 9 27 15 W 1024,4 0,0
10.12.2017 03:00:00 16,1 9,8 9 5 26 14 W 1024,6 0,0
10.12.2017 02:00:00 16,7 9,9 16 8 32 17 WNW 1025,1 0,0
10.12.2017 01:00:00 17,0 9,7 14 8 30 16 WNW 1025,9 -
10.12.2017 00:00:00 17,1 9,8 12 6 29 15 NW 1026,1 0,0
09.12.2017 23:00:00 16,7 9,4 10 5 20 11 WNW 1026,1 0,0
09.12.2017 22:00:00 17,0 9,2 14 7 27 14 WNW 1026,0 0,0
09.12.2017 21:00:00 17,0 9,2 13 7 28 15 WNW 1025,7 0,0
09.12.2017 20:00:00 17,1 8,8 12 7 29 16 W 1025,6 0,0
09.12.2017 19:00:00 17,2 8,6 14 7 33 18 WNW 1025,3 -
09.12.2017 18:00:00 17,5 8,6 10 5 32 17 W 1025,5 0,0
09.12.2017 17:00:00 18,0 8,3 21 11 44 24 NW 1025,2 0,0
09.12.2017 16:00:00 18,4 8,4 24 13 45 24 WNW 1025,0 0,0
09.12.2017 15:00:00 18,9 8,8 20 11 53 29 NW 1024,9 0,0
09.12.2017 14:00:00 18,7 8,7 25 13 46 25 WNW 1025,3 0,0
09.12.2017 13:00:00 19,0 8,7 16 8 39 21 WNW 1026,0 -
09.12.2017 12:00:00 19,3 9,2 13 7 32 17 NW 1026,6 0,0
09.12.2017 11:00:00 17,3 9,2 17 9 31 17 W 1026,5 0,0
09.12.2017 10:00:00 16,4 8,4 16 9 40 21 W 1026,1 0,0
09.12.2017 09:00:00 15,2 7,5 16 8 36 20 W 1025,1 0,0
09.12.2017 08:00:00 14,8 6,4 14 8 30 16 W 1025,1 0,0
09.12.2017 07:00:00 15,6 7,9 11 6 29 16 WNW 1025,4 -
09.12.2017 06:00:00 15,8 7,6 16 9 35 19 W 1025,2 0,0
09.12.2017 05:00:00 15,5 6,0 22 12 40 22 W 1025,3 0,0
09.12.2017 04:00:00 15,8 4,8 19 10 36 19 NW 1025,3 0,0
09.12.2017 03:00:00 15,9 4,0 14 7 34 19 WNW 1025,6 0,0
09.12.2017 02:00:00 16,3 2,0 12 6 28 15 W 1026,0 0,0
09.12.2017 01:00:00 16,3 -0,4 9 5 27 14 WNW 1026,6 -
09.12.2017 00:00:00 16,9 -1,2 11 6 28 15 WNW 1027,1 0,0
08.12.2017 23:00:00 17,1 -1,5 9 5 27 14 WNW 1027,0 0,0
08.12.2017 22:00:00 17,0 -3,1 16 9 31 17 WSW 1027,3 0,0
08.12.2017 21:00:00 16,3 -2,7 13 7 24 13 WSW 1027,5 0,0
08.12.2017 20:00:00 17,1 -2,0 13 7 26 14 WSW 1027,4 0,0
08.12.2017 19:00:00 17,5 -2,2 14 7 24 13 SW 1027,1 -
08.12.2017 18:00:00 18,7 -2,2 8 4 19 10 W 1026,9 0,0

tt = Température de l'air
td = dewpoint
ff = Vitesse du vent
fx = gusts
dd = Direction du vent
ppp = reduced air pressure
rr = Quantités de précipitations

stations d'obs. à proximité